createdAt,value
2023-05-24T00:02:10.244Z,12.65
2023-05-24T00:07:31.375Z,14.73
2023-05-24T00:12:52.192Z,15.93
2023-05-24T00:18:14.503Z,18.08
2023-05-24T00:23:35.605Z,15.48
2023-05-24T00:28:56.199Z,18.65
2023-05-24T00:34:18.740Z,24.02
2023-05-24T00:39:39.796Z,17.10
2023-05-24T00:45:00.720Z,13.82
2023-05-24T00:50:23.306Z,15.43
2023-05-24T00:55:44.159Z,12.98
2023-05-24T01:01:05.132Z,11.70
2023-05-24T01:06:28.459Z,20.05
2023-05-24T01:12:00.056Z,13.30
2023-05-24T01:17:27.413Z,19.45
2023-05-24T01:23:15.186Z,14.73
2023-05-24T01:28:40.778Z,21.90
2023-05-24T01:34:01.666Z,12.48
2023-05-24T01:39:24.420Z,19.15
2023-05-24T01:44:56.006Z,14.07
2023-05-24T01:50:39.680Z,17.52
2023-05-24T01:56:05.429Z,14.98
2023-05-24T02:01:28.778Z,18.10
2023-05-24T02:06:49.829Z,14.20
2023-05-24T02:12:11.794Z,14.93
2023-05-24T02:17:34.006Z,12.15
2023-05-24T02:22:55.015Z,18.05
2023-05-24T02:28:15.777Z,12.30
2023-05-24T02:33:37.981Z,15.45
2023-05-24T02:38:59.106Z,14.63
2023-05-24T02:44:19.832Z,14.85
2023-05-24T02:49:42.321Z,16.52
2023-05-24T02:55:03.182Z,16.00
2023-05-24T03:00:24.175Z,16.00
2023-05-24T03:05:46.384Z,14.15
2023-05-24T03:11:07.515Z,13.02
2023-05-24T03:16:28.303Z,14.25
2023-05-24T03:21:50.559Z,12.73
2023-05-24T03:27:11.799Z,13.40
2023-05-24T03:32:32.463Z,13.18
2023-05-24T03:37:55.004Z,12.02
2023-05-24T03:43:16.237Z,16.75
2023-05-24T03:48:36.854Z,15.00
2023-05-24T03:53:59.329Z,17.08
2023-05-24T03:59:19.889Z,13.25
2023-05-24T04:04:40.708Z,13.35
2023-05-24T04:10:03.356Z,21.70
2023-05-24T04:15:24.471Z,20.02
2023-05-24T04:20:45.353Z,18.23
2023-05-24T04:26:08.024Z,15.23
2023-05-24T04:31:28.770Z,15.43
2023-05-24T04:36:49.655Z,12.90
2023-05-24T04:42:11.989Z,10.98
2023-05-24T04:47:32.750Z,11.68
2023-05-24T04:52:53.527Z,16.70
2023-05-24T04:58:15.926Z,11.45
2023-05-24T05:03:36.860Z,15.27
2023-05-24T05:08:57.569Z,18.75
2023-05-24T05:14:19.672Z,15.23
2023-05-24T05:19:40.701Z,11.65
2023-05-24T05:25:01.819Z,13.18
2023-05-24T05:30:24.226Z,18.05
2023-05-24T05:35:45.270Z,21.60
2023-05-24T05:41:06.256Z,18.90
2023-05-24T05:46:28.581Z,20.05
2023-05-24T05:51:49.679Z,16.02
2023-05-24T05:57:10.735Z,29.15
2023-05-24T06:02:33.287Z,19.42
2023-05-24T06:07:54.309Z,17.60
2023-05-24T06:13:15.193Z,15.35
2023-05-24T06:18:37.284Z,19.15
2023-05-24T06:23:57.857Z,13.82
2023-05-24T06:29:19.433Z,18.35
2023-05-24T06:34:42.023Z,12.70
2023-05-24T06:40:03.090Z,13.48
2023-05-24T06:45:24.035Z,15.98
2023-05-24T06:50:46.841Z,12.18
2023-05-24T06:56:08.177Z,10.52
2023-05-24T07:01:30.121Z,16.20
2023-05-24T07:06:52.845Z,24.42
2023-05-24T07:12:13.993Z,24.95
2023-05-24T07:17:34.652Z,16.23
2023-05-24T07:22:57.020Z,13.73
2023-05-24T07:28:18.531Z,10.40
2023-05-24T07:33:39.613Z,13.82
2023-05-24T07:39:02.370Z,11.82
2023-05-24T07:44:23.838Z,16.38
2023-05-24T07:49:45.012Z,11.27
2023-05-24T07:55:08.447Z,10.20
2023-05-24T08:00:29.222Z,12.38
2023-05-24T08:05:50.202Z,10.70
2023-05-24T08:11:12.359Z,14.55
2023-05-24T08:16:33.218Z,14.02
2023-05-24T08:21:56.100Z,11.75
2023-05-24T08:27:18.436Z,7.13
2023-05-24T08:32:39.574Z,10.57
2023-05-24T08:38:00.344Z,20.05
2023-05-24T08:43:23.762Z,11.40
2023-05-24T08:48:46.742Z,8.38
2023-05-24T08:54:09.236Z,14.30
2023-05-24T08:59:31.908Z,11.07
2023-05-24T09:04:53.910Z,10.00
2023-05-24T09:10:15.255Z,13.98
2023-05-24T09:15:38.011Z,9.90
2023-05-24T09:20:59.090Z,7.00
2023-05-24T09:26:21.329Z,8.75
2023-05-24T09:31:43.484Z,16.48
2023-05-24T09:37:05.365Z,7.60
2023-05-24T09:42:27.235Z,9.10
2023-05-24T09:47:49.938Z,11.18
2023-05-24T09:53:11.698Z,9.50
2023-05-24T09:58:32.928Z,11.35
2023-05-24T10:03:56.711Z,7.43
2023-05-24T10:09:18.102Z,9.00
2023-05-24T10:14:39.646Z,10.15
2023-05-24T10:20:01.918Z,8.02
2023-05-24T10:25:24.196Z,10.40
2023-05-24T10:30:58.300Z,7.15
2023-05-24T10:36:21.277Z,6.97
2023-05-24T10:41:42.343Z,13.18
2023-05-24T10:47:10.788Z,8.10
2023-05-24T10:52:37.424Z,18.83
2023-05-24T10:57:58.342Z,13.32
2023-05-24T11:03:19.720Z,12.93
2023-05-24T11:08:43.290Z,9.27
2023-05-24T11:14:04.405Z,9.90
2023-05-24T11:19:31.422Z,9.40
2023-05-24T11:24:54.073Z,7.10
2023-05-24T11:30:15.941Z,9.90
2023-05-24T11:35:37.523Z,6.50
2023-05-24T11:41:00.026Z,6.30
2023-05-24T11:46:21.239Z,7.68
2023-05-24T11:51:43.086Z,7.88
2023-05-24T11:57:05.801Z,9.05
2023-05-24T12:02:29.596Z,12.02
2023-05-24T12:08:02.169Z,5.53
2023-05-24T12:13:26.228Z,7.40
2023-05-24T12:19:02.298Z,5.43
2023-05-24T12:24:27.232Z,4.68
2023-05-24T12:29:49.609Z,7.10
2023-05-24T12:35:11.929Z,7.07
2023-05-24T12:40:33.885Z,12.90
2023-05-24T12:45:56.388Z,4.45
2023-05-24T12:51:17.496Z,7.20
2023-05-24T12:56:38.269Z,7.15
2023-05-24T13:02:00.708Z,4.35
2023-05-24T13:07:21.788Z,20.42
2023-05-24T13:12:42.557Z,24.77
2023-05-24T13:18:05.635Z,12.13
2023-05-24T13:23:27.012Z,10.98
2023-05-24T13:29:11.866Z,6.63
2023-05-24T13:34:32.723Z,6.75
2023-05-24T13:39:53.769Z,6.15
2023-05-24T13:45:14.532Z,6.65
2023-05-24T13:50:37.419Z,6.18
2023-05-24T13:55:58.325Z,4.75
2023-05-24T14:01:19.649Z,6.45
2023-05-24T14:06:41.996Z,6.90
2023-05-24T14:12:03.271Z,6.03
2023-05-24T14:17:24.095Z,6.18
2023-05-24T14:22:46.312Z,10.55
2023-05-24T14:28:07.472Z,6.70
2023-05-24T14:33:28.367Z,9.73
2023-05-24T14:38:50.855Z,6.55
2023-05-24T14:44:11.595Z,9.02
2023-05-24T14:49:32.540Z,12.75
2023-05-24T14:54:54.704Z,6.68
2023-05-24T15:00:20.600Z,8.10
2023-05-24T15:05:43.354Z,7.00
2023-05-24T15:11:05.992Z,7.63
2023-05-24T15:16:26.795Z,4.85
2023-05-24T15:21:47.676Z,14.00
2023-05-24T15:27:09.829Z,24.15
2023-05-24T15:32:31.141Z,8.88
2023-05-24T15:37:51.924Z,10.38
2023-05-24T15:43:14.323Z,9.65
2023-05-24T15:48:35.530Z,5.82
2023-05-24T15:53:56.373Z,8.30
2023-05-24T15:59:20.887Z,7.35
2023-05-24T16:04:42.474Z,7.45
2023-05-24T16:10:03.269Z,3.67
2023-05-24T16:15:25.574Z,5.25
2023-05-24T16:20:46.679Z,5.13
2023-05-24T16:26:07.995Z,8.35
2023-05-24T16:31:30.611Z,6.97
2023-05-24T16:36:51.595Z,8.00
2023-05-24T16:42:12.509Z,7.25
2023-05-24T16:47:34.867Z,8.18
2023-05-24T16:52:56.003Z,9.05
2023-05-24T16:58:17.078Z,7.72
2023-05-24T17:03:39.482Z,8.55
2023-05-24T17:09:03.839Z,5.32
2023-05-24T17:14:26.134Z,6.95
2023-05-24T17:19:48.524Z,11.50
2023-05-24T17:25:09.692Z,7.53
2023-05-24T17:30:30.639Z,15.52
2023-05-24T17:35:53.584Z,14.32
2023-05-24T17:41:14.457Z,9.15
2023-05-24T17:46:37.245Z,11.73
2023-05-24T17:52:02.499Z,21.13
2023-05-24T17:57:23.413Z,14.00
2023-05-24T18:02:45.782Z,10.52
2023-05-24T18:08:08.576Z,9.05
2023-05-24T18:13:29.542Z,8.40
2023-05-24T18:18:50.518Z,7.63
2023-05-24T18:24:12.892Z,9.73
2023-05-24T18:29:33.982Z,6.30
2023-05-24T18:34:54.714Z,7.50
2023-05-24T18:40:17.162Z,7.38
2023-05-24T18:45:38.373Z,10.43
2023-05-24T18:50:59.059Z,10.63
2023-05-24T18:56:21.460Z,5.95
2023-05-24T19:01:42.120Z,9.90
2023-05-24T19:07:05.196Z,6.10
2023-05-24T19:12:27.429Z,6.60
2023-05-24T19:17:48.661Z,10.07
2023-05-24T19:23:09.420Z,6.38
2023-05-24T19:28:31.717Z,7.15
2023-05-24T19:34:01.026Z,7.40
2023-05-24T19:39:22.541Z,7.18
2023-05-24T19:44:44.848Z,8.82
2023-05-24T19:50:07.140Z,26.77
2023-05-24T19:55:28.073Z,21.13
2023-05-24T20:00:51.810Z,27.65
2023-05-24T20:06:12.790Z,48.17
2023-05-24T20:11:33.519Z,32.92
2023-05-24T20:16:56.407Z,23.08
2023-05-24T20:22:17.303Z,19.60
2023-05-24T20:27:40.708Z,18.75
2023-05-24T20:33:02.960Z,11.57
2023-05-24T20:38:25.100Z,10.75
2023-05-24T20:43:46.010Z,11.05
2023-05-24T20:49:08.630Z,9.65
2023-05-24T20:54:29.946Z,8.25
2023-05-24T20:59:50.798Z,9.05
2023-05-24T21:05:13.215Z,8.27
2023-05-24T21:10:34.057Z,8.88
2023-05-24T21:15:54.856Z,11.32
2023-05-24T21:21:16.976Z,13.25
2023-05-24T21:26:38.112Z,23.55
2023-05-24T21:31:58.794Z,12.05
2023-05-24T21:37:21.062Z,7.05
2023-05-24T21:42:42.148Z,18.58
2023-05-24T21:48:02.812Z,8.88
2023-05-24T21:53:25.173Z,12.00
2023-05-24T21:58:46.162Z,12.73
2023-05-24T22:04:07.067Z,6.75
2023-05-24T22:09:29.026Z,6.18
2023-05-24T22:14:50.120Z,7.57
2023-05-24T22:20:12.018Z,6.50
2023-05-24T22:25:34.549Z,9.82
2023-05-24T22:30:55.475Z,6.90
2023-05-24T22:36:16.517Z,6.20
2023-05-24T22:41:38.916Z,7.70
2023-05-24T22:46:59.856Z,6.45
2023-05-24T22:52:20.913Z,6.97
2023-05-24T22:57:43.230Z,7.57
2023-05-24T23:03:04.241Z,7.25
2023-05-24T23:08:25.074Z,8.38
2023-05-24T23:13:47.420Z,10.50
2023-05-24T23:19:07.935Z,8.18
2023-05-24T23:24:28.737Z,7.40
2023-05-24T23:29:50.926Z,7.28
2023-05-24T23:35:12.067Z,7.00
2023-05-24T23:40:33.341Z,8.65
2023-05-24T23:45:55.636Z,6.22
2023-05-24T23:51:16.578Z,8.95
2023-05-24T23:56:38.152Z,9.43
